Puget Island, Washington
Current Conditions -  °F | °C
As of 2:15 PM on Tuesday 25 Nov 2014 (Local Time) from KKLS Reporting Station
Overcast Overcast  
Wind Chill: 61°   Ceiling: 7000
Heat Index: 61°   Visibility: 10mi
Dew Point: 54°   Wind: 7mph
Humidity: 77%   Direction: 170°S
Pressure: 30.32"   Gusts: NA
Location:  46.2689°N, 123.296°W
Report Text: KKLS 252215Z 17006KT 10SM FEW060 OVC070 16/12 A3032 RMK AO1
Loading
Personal Weather Stations






























Interactive Weather Map New forecast layout! Learn more

10-Day Weather Forecast

Advertisements
Track Severe Weather on mobile